This is the latest recevied weather packets stored in our database for station/object EA5JMY-10. If no packets are shown the sender has not sent any weather packets the latest 10 day(s).
| Time | Temp. | Humidity | Pressure | Rain* | Wind** | Luminosity | Snow |
|---|---|---|---|---|---|---|---|
| 1776961162 | 20° C | 64% | 1020.2 hPa | - | - | - | - |
| 1776960262 | 20.56° C | 64% | 1020.1 hPa | - | - | - | - |
| 1776959362 | 20° C | 66% | 1020.3 hPa | - | - | - | - |
| 1776958462 | 20.56° C | 65% | 1020.2 hPa | - | - | - | - |
| 1776957561 | 20.56° C | 64% | 1020.2 hPa | - | - | - | - |
| 1776956661 | 20.56° C | 65% | 1020.3 hPa | - | - | - | - |
| 1776955761 | 21.11° C | 63% | 1020.4 hPa | - | - | - | - |
| 1776954861 | 20.56° C | 63% | 1020.6 hPa | - | - | - | - |
| 1776953961 | 20.56° C | 64% | 1020.7 hPa | - | - | - | - |
| 1776953061 | 21.11° C | 63% | 1020.9 hPa | - | - | - | - |
| 1776952161 | 21.67° C | 62% | 1021 hPa | - | - | - | - |
| 1776951261 | 21.11° C | 62% | 1021.1 hPa | - | - | - | - |
| 1776950360 | 21.11° C | 63% | 1021.2 hPa | - | - | - | - |
| 1776949460 | 21.11° C | 60% | 1021.3 hPa | - | - | - | - |
| 1776948560 | 21.67° C | 59% | 1021.3 hPa | - | - | - | - |
| 1776947660 | 22.22° C | 59% | 1021.3 hPa | - | - | - | - |
| 1776946760 | 21.67° C | 60% | 1021.4 hPa | - | - | - | - |
| 1776945860 | 21.11° C | 62% | 1021.5 hPa | - | - | - | - |
| 1776944959 | 21.67° C | 60% | 1021.5 hPa | - | - | - | - |
| 1776944059 | 21.67° C | 59% | 1021.5 hPa | - | - | - | - |
| 1776943159 | 21.11° C | 60% | 1021.5 hPa | - | - | - | - |
| 1776942259 | 21.11° C | 61% | 1021.6 hPa | - | - | - | - |
| 1776941359 | 21.67° C | 58% | 1021.6 hPa | - | - | - | - |
| 1776940459 | 21.67° C | 58% | 1021.8 hPa | - | - | - | - |
| 1776939558 | 22.22° C | 56% | 1021.7 hPa | - | - | - | - |
* Rain since midnight (hover to see other rain measurements)
** Current wind speed in m/s (hover to see current wind gust speed)